Time;durP1;ratioP1;P1;durP2;ratioP2;P2;SDS_P1;SDS_P2;PMS_P1;PMS_P2;Temp;Humidity;BMP_temperature;BMP_pressure;BME280_temperature;BME280_humidity;BME280_pressure;Samples;Min_cycle;Max_cycle;Signal;HPM_P1;HPM_P2
2023/12/17 00:00:11;;;;;;;11.68;6.88;;;6.50;99.90;;;;;;5161434;28;20018;-80
2023/12/17 00:02:42;;;;;;;12.10;7.45;;;6.40;99.90;;;;;;5602845;23;20049;-80
2023/12/17 00:05:13;;;;;;;11.32;7.30;;;6.50;99.90;;;;;;5147232;28;20023;-80
2023/12/17 00:07:44;;;;;;;12.82;7.65;;;6.50;99.90;;;;;;5156479;28;20677;-78
2023/12/17 00:10:15;;;;;;;10.77;7.20;;;6.60;99.90;;;;;;5163685;28;20048;-78
2023/12/17 00:12:46;;;;;;;12.20;7.75;;;6.60;99.90;;;;;;5153307;28;20077;-80
2023/12/17 00:15:17;;;;;;;11.85;7.50;;;6.50;99.90;;;;;;5147051;28;20121;-79
2023/12/17 00:17:48;;;;;;;15.85;9.13;;;6.50;99.90;;;;;;5148532;28;20023;-79
2023/12/17 00:20:19;;;;;;;11.20;8.30;;;6.70;99.90;;;;;;5148308;28;20035;-81
2023/12/17 00:22:50;;;;;;;12.90;11.77;;;6.80;99.90;;;;;;5148253;28;20026;-82
2023/12/17 00:25:21;;;;;;;16.15;14.65;;;6.70;99.90;;;;;;5147047;28;20037;-80
2023/12/17 00:27:51;;;;;;;17.13;15.70;;;6.60;99.90;;;;;;5148209;28;20513;-79
2023/12/17 00:30:22;;;;;;;18.48;16.88;;;6.50;99.90;;;;;;5148336;28;20065;-81
2023/12/17 00:32:53;;;;;;;20.70;18.42;;;6.60;99.90;;;;;;5138306;28;20035;-79
2023/12/17 00:35:24;;;;;;;19.60;18.00;;;6.60;99.90;;;;;;5128355;28;20367;-81
2023/12/17 00:37:55;;;;;;;21.85;20.08;;;6.60;99.90;;;;;;5128558;28;20106;-80
2023/12/17 00:40:26;;;;;;;19.40;17.70;;;6.70;99.90;;;;;;5128151;28;20032;-79
2023/12/17 00:42:57;;;;;;;18.67;15.52;;;6.80;99.90;;;;;;5127775;28;20046;-81
2023/12/17 00:45:31;;;;;;;18.17;16.10;;;6.70;99.90;;;;;;5127601;28;20110;-82
2023/12/17 00:48:05;;;;;;;17.85;15.73;;;6.70;99.90;;;;;;5126447;28;20027;-82
2023/12/17 00:50:37;;;;;;;15.50;14.10;;;6.80;99.90;;;;;;5127761;28;20390;-82
2023/12/17 00:53:10;;;;;;;15.23;13.73;;;6.70;99.90;;;;;;5126388;28;20031;-78
2023/12/17 00:55:48;;;;;;;15.20;11.82;;;6.80;99.90;;;;;;5127523;28;20032;-81
2023/12/17 00:58:21;;;;;;;12.80;11.50;;;6.90;99.90;;;;;;5127010;28;20023;-83
2023/12/17 01:00:56;;;;;;;16.23;10.77;;;6.80;99.90;;;;;;5127264;28;20031;-82
2023/12/17 01:03:33;;;;;;;12.80;10.55;;;6.80;99.90;;;;;;5123079;28;20135;-82
2023/12/17 01:06:08;;;;;;;12.10;9.73;;;6.80;99.90;;;;;;5107147;29;20067;-81
2023/12/17 01:08:41;;;;;;;14.13;10.45;;;6.70;99.90;;;;;;5107486;29;20377;-83
2023/12/17 01:11:15;;;;;;;15.10;9.20;;;6.80;99.90;;;;;;5105992;29;20036;-81
2023/12/17 01:13:51;;;;;;;10.02;8.90;;;6.90;99.90;;;;;;5107391;29;20034;-80
2023/12/17 01:16:26;;;;;;;13.02;10.18;;;6.90;99.90;;;;;;5107196;29;20096;-82
2023/12/17 01:19:02;;;;;;;14.35;9.15;;;6.80;99.90;;;;;;5107246;29;20111;-81
2023/12/17 01:21:38;;;;;;;12.93;9.93;;;6.80;99.90;;;;;;5107235;29;20026;-79
2023/12/17 01:24:12;;;;;;;13.07;9.98;;;6.80;99.90;;;;;;5122082;29;20075;-82
2023/12/17 01:26:44;;;;;;;16.98;10.98;;;6.80;99.90;;;;;;5121888;28;20034;-82
2023/12/17 01:29:18;;;;;;;13.20;8.68;;;6.80;99.90;;;;;;5106996;29;20052;-82
2023/12/17 01:31:50;;;;;;;13.85;9.15;;;6.80;99.90;;;;;;5107025;29;20067;-81
2023/12/17 01:34:22;;;;;;;16.67;9.20;;;6.60;99.90;;;;;;5106833;29;20032;-80
2023/12/17 01:36:55;;;;;;;12.77;9.63;;;6.80;99.90;;;;;;5105565;29;20486;-80
2023/12/17 01:39:28;;;;;;;10.63;9.45;;;6.80;99.90;;;;;;5107117;29;20055;-82
2023/12/17 01:42:00;;;;;;;12.63;9.25;;;6.80;99.90;;;;;;5106703;29;20043;-78
2023/12/17 01:44:33;;;;;;;11.10;9.75;;;6.70;99.90;;;;;;5106633;29;20036;-81
2023/12/17 01:47:06;;;;;;;12.13;10.20;;;6.80;99.90;;;;;;5106354;29;20016;-81
2023/12/17 01:49:45;;;;;;;10.88;8.90;;;6.70;99.90;;;;;;5106252;29;20046;-81
2023/12/17 01:52:19;;;;;;;15.75;9.65;;;6.60;99.90;;;;;;5106390;29;20031;-82
2023/12/17 01:54:56;;;;;;;13.10;8.85;;;6.80;99.90;;;;;;5104943;29;20420;-80
2023/12/17 01:57:30;;;;;;;16.13;9.10;;;6.80;99.90;;;;;;5106002;29;20150;-81
2023/12/17 02:00:07;;;;;;;10.07;8.73;;;6.80;99.90;;;;;;5106447;29;20030;-79
2023/12/17 02:02:40;;;;;;;12.32;9.20;;;6.80;99.90;;;;;;5105815;29;20075;-83
2023/12/17 02:05:15;;;;;;;10.40;9.20;;;6.70;99.90;;;;;;5121275;29;20036;-82
2023/12/17 02:07:50;;;;;;;13.07;9.80;;;6.90;99.90;;;;;;5106566;29;20027;-82
2023/12/17 02:10:21;;;;;;;12.10;9.73;;;6.80;99.90;;;;;;5106524;29;20039;-81
2023/12/17 02:12:55;;;;;;;11.25;10.02;;;6.90;99.90;;;;;;5106346;29;20060;-80
2023/12/17 02:15:27;;;;;;;14.27;10.48;;;6.80;99.90;;;;;;5106330;29;20107;-80
2023/12/17 02:18:02;;;;;;;10.50;9.48;;;6.70;99.90;;;;;;5106609;29;20027;-81
2023/12/17 02:20:36;;;;;;;13.43;11.05;;;6.80;99.90;;;;;;5106391;29;20046;-80
2023/12/17 02:23:08;;;;;;;13.18;11.05;;;6.80;99.90;;;;;;5106407;29;20028;-81
2023/12/17 02:25:41;;;;;;;12.15;9.85;;;6.90;99.90;;;;;;5106203;29;20034;-83
2023/12/17 02:28:15;;;;;;;10.63;9.50;;;6.80;99.90;;;;;;5106535;29;20484;-80
2023/12/17 02:30:49;;;;;;;16.05;9.82;;;7.00;99.90;;;;;;5106336;29;20070;-79
2023/12/17 02:33:28;;;;;;;10.25;9.30;;;6.90;99.90;;;;;;5106061;29;20044;-78
2023/12/17 02:36:05;;;;;;;16.37;10.83;;;6.90;99.90;;;;;;5106277;29;20027;-79
2023/12/17 02:38:41;;;;;;;14.35;9.25;;;6.80;99.90;;;;;;5106364;29;20055;-79
2023/12/17 02:41:13;;;;;;;11.35;8.52;;;6.70;99.90;;;;;;5105947;29;20038;-79
2023/12/17 02:43:49;;;;;;;12.90;9.02;;;6.70;99.90;;;;;;5106128;29;20028;-79
2023/12/17 02:46:22;;;;;;;11.73;8.95;;;6.80;99.90;;;;;;5106104;29;20036;-79
2023/12/17 02:48:54;;;;;;;12.23;9.60;;;6.70;99.90;;;;;;5106244;29;20039;-79
2023/12/17 02:51:25;;;;;;;11.25;9.57;;;6.80;99.90;;;;;;5106090;29;20220;-79
2023/12/17 02:53:56;;;;;;;11.98;10.85;;;6.70;99.90;;;;;;5106132;29;20055;-80
2023/12/17 02:56:27;;;;;;;11.25;10.20;;;6.80;99.90;;;;;;5106015;29;20023;-80
2023/12/17 02:58:59;;;;;;;12.32;11.00;;;6.70;99.90;;;;;;5106193;29;20020;-79
2023/12/17 03:04:13;;;;;;;13.82;11.82;;;6.90;99.90;;;;;;5517276;23;20518;-81
2023/12/17 03:06:44;;;;;;;13.27;11.93;;;6.90;99.90;;;;;;5148323;28;20034;-79
2023/12/17 03:09:16;;;;;;;15.73;12.02;;;6.90;99.90;;;;;;5150666;28;20033;-79
2023/12/17 03:11:47;;;;;;;14.15;12.73;;;6.90;99.90;;;;;;5168175;28;20084;-80
2023/12/17 03:14:20;;;;;;;14.90;12.73;;;6.80;99.90;;;;;;5169581;28;20023;-78
2023/12/17 03:16:51;;;;;;;15.18;13.57;;;6.80;99.90;;;;;;5169605;28;20417;-79
2023/12/17 03:19:21;;;;;;;16.00;14.45;;;6.90;99.90;;;;;;5169514;28;20022;-80
2023/12/17 03:21:54;;;;;;;16.55;14.95;;;6.90;99.90;;;;;;5169312;28;20023;-78
2023/12/17 03:24:25;;;;;;;15.93;14.48;;;6.90;99.90;;;;;;5151851;28;20030;-78
2023/12/17 03:26:57;;;;;;;16.17;14.50;;;6.90;99.90;;;;;;5169416;28;20022;-79
2023/12/17 03:29:29;;;;;;;17.00;15.23;;;6.90;99.90;;;;;;5169345;28;20030;-78
2023/12/17 03:32:02;;;;;;;17.42;15.73;;;6.80;99.90;;;;;;5169174;28;20030;-79
2023/12/17 03:34:33;;;;;;;15.77;14.27;;;6.90;99.90;;;;;;5169105;28;20050;-79
2023/12/17 03:37:04;;;;;;;15.48;14.15;;;6.90;99.90;;;;;;5168943;28;20117;-77
2023/12/17 03:39:37;;;;;;;14.13;12.77;;;6.70;99.90;;;;;;5168339;28;20026;-80
2023/12/17 03:42:09;;;;;;;15.15;13.63;;;6.60;99.90;;;;;;5168816;28;20066;-77
2023/12/17 03:44:41;;;;;;;16.33;12.65;;;6.70;99.90;;;;;;5169015;28;20394;-79
2023/12/17 03:47:12;;;;;;;13.57;11.57;;;6.60;99.90;;;;;;5168980;28;20025;-79
2023/12/17 03:49:43;;;;;;;15.90;10.45;;;6.40;99.90;;;;;;5169134;28;20457;-79
2023/12/17 03:52:18;;;;;;;12.38;10.52;;;6.40;99.90;;;;;;5167568;28;20030;-82
2023/12/17 03:54:50;;;;;;;16.63;10.35;;;6.60;99.90;;;;;;5168758;28;20081;-78
2023/12/17 03:57:22;;;;;;;11.50;10.27;;;6.50;99.90;;;;;;5168642;28;20478;-80
2023/12/17 03:59:54;;;;;;;12.40;11.10;;;6.50;99.90;;;;;;5168767;28;20093;-79
2023/12/17 04:02:26;;;;;;;12.32;11.02;;;6.60;99.90;;;;;;5168502;28;20066;-78
2023/12/17 04:04:57;;;;;;;12.55;10.40;;;6.50;99.90;;;;;;5168420;28;20049;-81
2023/12/17 04:07:35;;;;;;;11.85;10.32;;;6.60;99.90;;;;;;5168673;28;20030;-80
2023/12/17 04:10:08;;;;;;;14.77;10.60;;;6.50;99.90;;;;;;5168716;28;20030;-78
2023/12/17 04:12:42;;;;;;;13.88;11.27;;;6.50;99.90;;;;;;5168732;28;20492;-79
2023/12/17 04:15:15;;;;;;;13.20;10.30;;;6.50;99.90;;;;;;5168395;28;20736;-79
2023/12/17 04:17:48;;;;;;;13.27;10.60;;;6.50;99.90;;;;;;5168430;28;20019;-78
2023/12/17 04:20:20;;;;;;;15.30;12.27;;;6.50;99.90;;;;;;5167943;28;20113;-80
2023/12/17 04:22:51;;;;;;;14.48;11.68;;;6.40;99.90;;;;;;5168113;28;20034;-81
2023/12/17 04:25:25;;;;;;;11.63;10.43;;;6.50;99.90;;;;;;5168394;28;20033;-82
2023/12/17 04:27:58;;;;;;;15.50;11.90;;;6.50;99.90;;;;;;5166911;28;20030;-81
2023/12/17 04:30:29;;;;;;;15.55;11.15;;;6.60;99.90;;;;;;5168117;28;20109;-79
2023/12/17 04:33:01;;;;;;;12.95;10.95;;;6.50;99.90;;;;;;5167916;28;20038;-82
2023/12/17 04:35:33;;;;;;;12.98;11.23;;;6.60;99.90;;;;;;5167937;28;20109;-82
2023/12/17 04:38:04;;;;;;;15.18;12.18;;;6.60;99.90;;;;;;5167784;28;20026;-80
2023/12/17 04:40:36;;;;;;;13.90;11.85;;;6.60;99.90;;;;;;5167994;28;20088;-81
2023/12/17 04:43:08;;;;;;;14.60;12.27;;;6.50;99.90;;;;;;5167847;28;20521;-81
2023/12/17 04:45:41;;;;;;;14.80;12.18;;;6.50;99.90;;;;;;5167924;28;20033;-81
2023/12/17 04:48:15;;;;;;;14.90;12.25;;;6.50;99.90;;;;;;5167748;28;20466;-81
2023/12/17 04:50:47;;;;;;;15.60;12.50;;;6.50;99.90;;;;;;5167693;28;20041;-78
2023/12/17 04:53:19;;;;;;;15.60;12.55;;;6.60;99.90;;;;;;5167704;28;20027;-82
2023/12/17 04:55:51;;;;;;;15.15;12.85;;;6.60;99.90;;;;;;5167926;28;20026;-79
2023/12/17 04:58:23;;;;;;;14.10;12.27;;;6.70;99.90;;;;;;5167651;28;20038;-78
2023/12/17 05:00:58;;;;;;;16.20;12.73;;;6.60;99.90;;;;;;5167799;28;20022;-78
2023/12/17 05:03:30;;;;;;;14.35;12.30;;;6.60;99.90;;;;;;5167277;28;20453;-81
2023/12/17 05:06:01;;;;;;;18.35;12.50;;;6.70;99.90;;;;;;5167621;28;20030;-77
2023/12/17 05:08:32;;;;;;;14.43;12.48;;;6.50;99.90;;;;;;5167641;28;20063;-78
2023/12/17 05:11:03;;;;;;;13.68;12.35;;;6.60;99.90;;;;;;5167294;28;20463;-80
2023/12/17 05:13:34;;;;;;;17.83;13.75;;;6.70;99.90;;;;;;5167491;28;20076;-79
2023/12/17 05:16:05;;;;;;;14.98;13.25;;;6.60;99.90;;;;;;5167314;28;20039;-80
2023/12/17 05:18:36;;;;;;;19.80;14.05;;;6.60;99.90;;;;;;5167705;28;20037;-81
2023/12/17 05:21:08;;;;;;;14.75;12.40;;;6.80;99.90;;;;;;5166765;28;20027;-76
2023/12/17 05:23:38;;;;;;;14.52;13.00;;;6.60;99.90;;;;;;5167200;28;20049;-78
2023/12/17 05:26:10;;;;;;;14.60;11.88;;;6.70;99.90;;;;;;5167064;28;20022;-79
2023/12/17 05:28:41;;;;;;;13.60;12.18;;;6.60;99.90;;;;;;5167215;28;20030;-79
2023/12/17 05:31:12;;;;;;;16.42;13.63;;;6.70;99.90;;;;;;5166067;28;20080;-78
2023/12/17 05:33:46;;;;;;;14.10;12.70;;;6.70;99.90;;;;;;5166879;28;20370;-78
2023/12/17 05:36:17;;;;;;;18.80;13.88;;;6.70;99.90;;;;;;5166898;28;20424;-78
2023/12/17 05:38:48;;;;;;;18.20;14.18;;;6.70;99.90;;;;;;5166667;28;20097;-78
2023/12/17 05:41:18;;;;;;;15.70;14.10;;;6.70;99.90;;;;;;5166570;28;20382;-78
2023/12/17 05:43:49;;;;;;;14.77;13.32;;;6.70;99.90;;;;;;5166793;28;20536;-78
2023/12/17 05:46:20;;;;;;;14.57;13.07;;;6.60;99.90;;;;;;5166771;28;20489;-79
2023/12/17 05:48:51;;;;;;;16.45;14.73;;;6.60;99.90;;;;;;5166727;28;20026;-78
2023/12/17 05:51:22;;;;;;;17.23;15.55;;;6.70;99.90;;;;;;5166642;28;20049;-78
2023/12/17 05:53:53;;;;;;;20.13;15.98;;;6.60;99.90;;;;;;5166638;28;20023;-78
2023/12/17 05:56:24;;;;;;;16.75;15.13;;;6.70;99.90;;;;;;5166541;28;20037;-78
2023/12/17 05:58:55;;;;;;;16.13;14.52;;;6.70;99.90;;;;;;5166692;28;20022;-78
2023/12/17 06:01:26;;;;;;;17.92;16.23;;;6.70;99.90;;;;;;5166627;28;20037;-79
2023/12/17 06:03:56;;;;;;;19.27;17.50;;;6.70;99.90;;;;;;5166087;28;20506;-78
2023/12/17 06:06:27;;;;;;;20.55;18.80;;;6.80;99.90;;;;;;5166507;28;20026;-78
2023/12/17 06:08:58;;;;;;;20.05;18.23;;;6.80;99.90;;;;;;5166545;28;20477;-78
2023/12/17 06:11:29;;;;;;;19.13;17.55;;;6.70;99.90;;;;;;5166378;28;20485;-79
2023/12/17 06:14:01;;;;;;;22.05;20.10;;;6.70;99.90;;;;;;5166631;28;20030;-79
2023/12/17 06:16:32;;;;;;;20.77;18.95;;;6.80;99.90;;;;;;5166376;28;20034;-79
2023/12/17 06:19:03;;;;;;;19.25;17.73;;;6.80;99.90;;;;;;5166531;28;20378;-78
2023/12/17 06:21:34;;;;;;;18.98;17.20;;;6.70;99.90;;;;;;5166298;28;20053;-78
2023/12/17 06:24:05;;;;;;;20.83;18.77;;;6.70;99.90;;;;;;5166283;28;20037;-78
2023/12/17 06:26:37;;;;;;;18.88;17.25;;;6.80;99.90;;;;;;5164921;28;20713;-78
2023/12/17 06:29:13;;;;;;;19.42;17.73;;;6.90;99.90;;;;;;5165900;28;20045;-78
2023/12/17 06:31:43;;;;;;;17.50;15.60;;;6.90;99.90;;;;;;5166147;28;20077;-79
2023/12/17 06:34:14;;;;;;;17.52;15.95;;;6.90;99.90;;;;;;5165964;28;20042;-79
2023/12/17 06:36:46;;;;;;;17.67;15.90;;;6.80;99.90;;;;;;5166011;28;20049;-79
2023/12/17 06:39:16;;;;;;;16.10;14.55;;;6.90;99.90;;;;;;5166118;28;20095;-78
2023/12/17 06:41:48;;;;;;;17.85;16.15;;;7.00;99.90;;;;;;5166687;28;20038;-79
2023/12/17 06:44:19;;;;;;;18.63;16.92;;;7.00;99.90;;;;;;5170263;28;20470;-78
2023/12/17 06:46:49;;;;;;;16.23;14.63;;;7.00;99.90;;;;;;5170139;28;20105;-78
2023/12/17 06:49:20;;;;;;;16.40;15.00;;;6.90;99.90;;;;;;5170214;28;20113;-78
2023/12/17 06:51:51;;;;;;;15.70;14.38;;;7.00;99.90;;;;;;5169985;28;20046;-77
2023/12/17 06:54:22;;;;;;;14.75;13.27;;;7.10;99.90;;;;;;5170082;28;20433;-78
2023/12/17 06:56:53;;;;;;;15.88;14.50;;;7.10;99.90;;;;;;5169916;28;20030;-78
2023/12/17 06:59:24;;;;;;;16.02;14.52;;;7.10;99.90;;;;;;5169930;28;20026;-78
2023/12/17 07:01:54;;;;;;;16.52;13.48;;;7.00;99.90;;;;;;5169621;28;20058;-78
2023/12/17 07:04:25;;;;;;;18.80;16.85;;;7.10;99.90;;;;;;5169619;28;20598;-78
2023/12/17 07:07:02;;;;;;;18.05;15.45;;;7.20;99.90;;;;;;5169784;28;20023;-78
2023/12/17 07:09:35;;;;;;;16.98;15.45;;;7.20;99.90;;;;;;5168236;28;20085;-78
2023/12/17 07:12:06;;;;;;;16.73;15.32;;;7.20;99.90;;;;;;5169723;28;20422;-77
2023/12/17 07:14:37;;;;;;;15.65;14.18;;;7.30;99.90;;;;;;5170000;28;20035;-77
2023/12/17 07:17:08;;;;;;;15.23;13.60;;;7.30;99.90;;;;;;5169184;28;20034;-79
2023/12/17 07:19:39;;;;;;;15.32;13.60;;;7.30;99.90;;;;;;5168341;28;20057;-78
2023/12/17 07:22:10;;;;;;;16.30;14.85;;;7.40;99.90;;;;;;5169768;28;20109;-78
2023/12/17 07:24:41;;;;;;;14.18;12.77;;;7.40;99.90;;;;;;5169529;28;20030;-78
2023/12/17 07:27:14;;;;;;;13.90;12.80;;;7.40;99.90;;;;;;5169443;28;20125;-78
2023/12/17 07:29:45;;;;;;;13.32;12.18;;;7.30;99.90;;;;;;5169357;28;20049;-78
2023/12/17 07:32:16;;;;;;;13.35;12.13;;;7.30;99.90;;;;;;5169064;28;20034;-78
2023/12/17 07:34:46;;;;;;;11.10;10.02;;;7.30;99.90;;;;;;5169276;28;20054;-77
2023/12/17 07:37:17;;;;;;;10.73;9.57;;;7.30;99.90;;;;;;5169189;28;20082;-79
2023/12/17 07:39:48;;;;;;;14.07;12.70;;;7.30;99.90;;;;;;5169218;28;20030;-77
2023/12/17 07:42:19;;;;;;;12.88;11.85;;;7.40;99.90;;;;;;5169104;28;20026;-78
2023/12/17 07:44:50;;;;;;;13.35;12.25;;;7.30;99.90;;;;;;5169255;28;20081;-78
2023/12/17 07:47:21;;;;;;;16.38;11.30;;;7.40;99.90;;;;;;5169250;28;20077;-78
2023/12/17 07:49:52;;;;;;;14.73;13.40;;;7.40;99.90;;;;;;5169066;28;20470;-77
2023/12/17 07:52:23;;;;;;;12.95;11.68;;;7.40;99.90;;;;;;5168895;28;20040;-79
2023/12/17 07:54:53;;;;;;;16.77;15.18;;;7.40;99.90;;;;;;5167948;28;20023;-78
2023/12/17 07:57:24;;;;;;;16.13;14.45;;;7.60;99.90;;;;;;5168681;28;20041;-79
2023/12/17 07:59:55;;;;;;;19.85;17.55;;;7.60;99.90;;;;;;5167234;28;20509;-79
2023/12/17 08:02:30;;;;;;;18.38;16.77;;;7.70;99.90;;;;;;5168502;28;20038;-79
2023/12/17 08:05:01;;;;;;;15.52;14.15;;;7.80;99.90;;;;;;5168343;28;20042;-78
2023/12/17 08:07:36;;;;;;;15.88;14.60;;;7.80;99.90;;;;;;5168311;28;20085;-77
2023/12/17 08:10:08;;;;;;;17.20;15.82;;;7.90;99.90;;;;;;5168427;28;20026;-78
2023/12/17 08:12:39;;;;;;;17.55;16.00;;;7.90;99.90;;;;;;5168405;28;20027;-79
2023/12/17 08:15:10;;;;;;;15.65;14.10;;;7.80;99.90;;;;;;5168315;28;20027;-78
2023/12/17 08:17:44;;;;;;;15.75;14.45;;;7.90;99.90;;;;;;5168214;28;20429;-78
2023/12/17 08:20:15;;;;;;;14.52;13.32;;;7.90;99.90;;;;;;5168090;28;20445;-77
2023/12/17 08:22:46;;;;;;;14.13;12.80;;;7.90;99.90;;;;;;5167923;28;20101;-79
2023/12/17 08:25:17;;;;;;;12.45;11.15;;;8.00;99.90;;;;;;5168153;28;20033;-79
2023/12/17 08:27:47;;;;;;;12.02;11.10;;;8.00;99.90;;;;;;5168407;28;20030;-79
2023/12/17 08:30:18;;;;;;;12.75;11.65;;;8.20;99.90;;;;;;5168123;28;20023;-79
2023/12/17 08:32:49;;;;;;;14.93;13.48;;;8.30;99.90;;;;;;5168000;28;20137;-78
2023/12/17 08:35:20;;;;;;;13.57;12.13;;;8.60;99.90;;;;;;5165579;28;20072;-80
2023/12/17 08:37:51;;;;;;;12.35;11.18;;;8.90;99.90;;;;;;5168115;28;20038;-79
2023/12/17 08:40:22;;;;;;;12.57;11.27;;;8.70;99.90;;;;;;5168163;28;20076;-79
2023/12/17 08:42:53;;;;;;;11.95;10.98;;;8.70;99.90;;;;;;5168230;28;20081;-80
2023/12/17 08:45:24;;;;;;;12.25;11.13;;;8.60;99.90;;;;;;5167793;28;20525;-79
2023/12/17 08:47:56;;;;;;;16.33;14.52;;;8.50;99.90;;;;;;5167649;28;20030;-78
2023/12/17 08:50:27;;;;;;;14.45;13.23;;;8.50;99.90;;;;;;5167838;28;20080;-80
2023/12/17 08:52:58;;;;;;;21.75;15.57;;;8.50;99.90;;;;;;5167591;28;20023;-79
2023/12/17 08:55:29;;;;;;;15.38;14.07;;;8.50;99.90;;;;;;5168333;28;20045;-79
2023/12/17 08:58:00;;;;;;;16.52;15.13;;;8.40;99.90;;;;;;5167532;28;20022;-79
2023/12/17 09:00:31;;;;;;;15.45;14.02;;;8.30;99.90;;;;;;5167628;28;20073;-79
2023/12/17 09:03:02;;;;;;;15.80;14.38;;;8.40;99.90;;;;;;5167218;28;20058;-78
2023/12/17 09:05:35;;;;;;;14.98;13.73;;;8.40;99.90;;;;;;5166818;28;20382;-79
2023/12/17 09:08:05;;;;;;;13.13;11.98;;;8.30;99.90;;;;;;5167232;28;20018;-79
2023/12/17 09:10:36;;;;;;;13.75;11.05;;;8.30;99.90;;;;;;5167006;28;20035;-79
2023/12/17 09:13:09;;;;;;;14.98;13.68;;;8.30;99.90;;;;;;5167064;28;20027;-79
2023/12/17 09:15:40;;;;;;;15.40;13.82;;;8.20;99.90;;;;;;5167140;28;20041;-79
2023/12/17 09:18:11;;;;;;;13.95;12.85;;;8.50;99.90;;;;;;5167038;28;20030;-79
2023/12/17 09:20:43;;;;;;;14.82;13.52;;;8.40;99.90;;;;;;5158699;28;20034;-79
2023/12/17 09:23:14;;;;;;;13.80;12.60;;;8.60;99.90;;;;;;5146713;28;20110;-79
2023/12/17 09:25:45;;;;;;;13.82;12.45;;;8.70;99.90;;;;;;5146773;28;20106;-79
2023/12/17 09:28:15;;;;;;;15.93;14.05;;;8.60;99.90;;;;;;5154978;28;20026;-80
2023/12/17 09:30:46;;;;;;;14.57;13.07;;;8.60;99.90;;;;;;5166945;28;20046;-80
2023/12/17 09:33:17;;;;;;;16.13;13.90;;;8.40;99.90;;;;;;5166661;28;20438;-79
2023/12/17 09:35:48;;;;;;;15.60;14.00;;;8.30;99.90;;;;;;5163476;28;20032;-79
2023/12/17 09:38:19;;;;;;;13.60;12.45;;;8.30;99.90;;;;;;5166721;28;20050;-80
2023/12/17 09:40:50;;;;;;;13.60;12.40;;;8.20;99.90;;;;;;5166617;28;20475;-80
2023/12/17 09:43:24;;;;;;;14.43;13.20;;;8.10;99.90;;;;;;5166403;28;20346;-80
2023/12/17 09:45:55;;;;;;;16.17;14.88;;;8.10;99.90;;;;;;5165406;28;20602;-79
2023/12/17 09:48:27;;;;;;;14.52;13.23;;;8.10;99.90;;;;;;5166664;28;20033;-79
2023/12/17 09:50:58;;;;;;;16.20;14.93;;;8.00;99.90;;;;;;5166669;28;20038;-79
2023/12/17 09:53:31;;;;;;;16.67;15.32;;;7.90;99.90;;;;;;5166746;28;20126;-79
2023/12/17 09:56:02;;;;;;;14.85;13.40;;;8.10;99.90;;;;;;5166629;28;20101;-79
2023/12/17 09:58:33;;;;;;;15.27;13.90;;;8.00;99.90;;;;;;5166620;28;20039;-79
2023/12/17 10:01:04;;;;;;;15.07;13.75;;;8.10;99.90;;;;;;5166471;28;20026;-80
2023/12/17 10:03:35;;;;;;;15.27;13.70;;;8.00;99.90;;;;;;5166053;28;20054;-80
2023/12/17 10:06:06;;;;;;;14.55;13.15;;;8.00;99.90;;;;;;5163183;28;20035;-80
2023/12/17 10:08:37;;;;;;;15.05;13.43;;;8.10;99.90;;;;;;5163560;28;20030;-79
2023/12/17 10:11:08;;;;;;;14.40;13.07;;;7.90;99.90;;;;;;5166444;28;20061;-79
2023/12/17 10:13:39;;;;;;;15.93;14.70;;;8.10;99.90;;;;;;5166097;28;20050;-79
2023/12/17 10:16:10;;;;;;;17.73;16.08;;;8.00;99.90;;;;;;5166126;28;20022;-80
2023/12/17 10:18:48;;;;;;;16.80;15.38;;;8.10;99.90;;;;;;5165260;28;20169;-80
2023/12/17 10:21:19;;;;;;;15.70;14.40;;;8.00;99.90;;;;;;5165903;28;20026;-79
2023/12/17 10:23:50;;;;;;;14.10;12.93;;;8.00;99.90;;;;;;5166179;28;20109;-79
2023/12/17 10:26:27;;;;;;;15.50;14.02;;;8.20;99.90;;;;;;5166112;28;20105;-80
2023/12/17 10:28:59;;;;;;;13.48;12.35;;;8.20;99.90;;;;;;5162478;28;20030;-79
2023/12/17 10:31:31;;;;;;;14.43;13.18;;;8.20;99.90;;;;;;5165920;28;20390;-79
2023/12/17 10:34:18;;;;;;;15.45;13.73;;;8.20;99.90;;;;;;5165654;28;20027;-79
2023/12/17 10:36:50;;;;;;;15.27;14.02;;;8.20;99.90;;;;;;5160459;28;20027;-79
2023/12/17 10:41:57;;;;;;;15.57;14.27;;;8.30;99.90;;;;;;5165439;28;20077;-79
2023/12/17 10:44:28;;;;;;;12.85;11.75;;;8.40;99.90;;;;;;5166131;28;20061;-79
2023/12/17 10:47:03;;;;;;;12.52;11.52;;;8.40;99.90;;;;;;5166136;28;20030;-79
2023/12/17 10:49:34;;;;;;;13.93;12.70;;;8.60;99.90;;;;;;5166801;28;20014;-79
2023/12/17 10:52:08;;;;;;;10.35;9.50;;;8.70;99.90;;;;;;5165949;28;20172;-79
2023/12/17 10:54:40;;;;;;;14.75;13.35;;;8.40;99.90;;;;;;5165793;28;20026;-80
2023/12/17 10:57:23;;;;;;;17.15;15.70;;;8.50;99.90;;;;;;5165567;28;20162;-80
2023/12/17 10:59:58;;;;;;;15.38;14.27;;;8.50;99.90;;;;;;5145880;28;20027;-79
2023/12/17 11:02:29;;;;;;;15.65;14.35;;;8.40;99.90;;;;;;5145534;28;20039;-80
2023/12/17 11:05:01;;;;;;;17.80;16.40;;;8.40;99.90;;;;;;5145310;28;20073;-80
2023/12/17 11:07:32;;;;;;;16.80;15.40;;;8.30;99.90;;;;;;5145673;28;20050;-80
2023/12/17 11:10:11;;;;;;;19.20;17.50;;;8.30;99.90;;;;;;5164948;28;20105;-81
2023/12/17 11:12:49;;;;;;;20.48;19.05;;;8.20;99.90;;;;;;5165592;28;20478;-79
2023/12/17 11:15:24;;;;;;;20.50;18.75;;;8.10;99.90;;;;;;5154117;28;20478;-80
2023/12/17 11:17:55;;;;;;;19.20;17.48;;;8.20;99.90;;;;;;5163799;28;20031;-80
2023/12/17 11:20:41;;;;;;;19.35;17.85;;;8.20;99.90;;;;;;5165407;28;20379;-80
2023/12/17 11:23:17;;;;;;;21.23;19.73;;;8.20;99.90;;;;;;5153413;28;20451;-82
2023/12/17 11:25:49;;;;;;;17.70;16.15;;;8.20;99.90;;;;;;5155299;28;20023;-82
2023/12/17 11:28:25;;;;;;;21.20;19.67;;;8.30;99.90;;;;;;5165363;28;20420;-81
2023/12/17 11:30:56;;;;;;;19.83;18.35;;;8.20;99.90;;;;;;5155399;28;20039;-85
2023/12/17 11:33:28;;;;;;;20.17;18.85;;;8.10;99.90;;;;;;5169111;28;20026;-84
2023/12/17 11:36:00;;;;;;;23.35;21.35;;;8.10;99.90;;;;;;5164435;28;20050;-83
2023/12/17 11:38:31;;;;;;;20.23;18.42;;;8.20;99.90;;;;;;5157798;28;20105;-84
2023/12/17 11:41:05;;;;;;;20.17;18.63;;;8.20;99.90;;;;;;5168883;28;20049;-83
2023/12/17 11:43:40;;;;;;;20.20;18.80;;;8.30;99.90;;;;;;5165340;28;20058;-81
2023/12/17 11:46:15;;;;;;;24.85;22.95;;;8.30;99.90;;;;;;5169353;28;20026;-82
2023/12/17 11:48:50;;;;;;;20.10;18.67;;;8.40;99.90;;;;;;5166312;28;20046;-83
2023/12/17 11:51:25;;;;;;;23.10;21.42;;;8.40;99.90;;;;;;5168953;28;20497;-83
2023/12/17 11:53:56;;;;;;;21.63;20.17;;;8.30;99.90;;;;;;5167510;28;20018;-84
2023/12/17 11:56:32;;;;;;;24.40;22.70;;;8.30;99.90;;;;;;5168646;28;20030;-82
2023/12/17 11:59:03;;;;;;;23.75;21.95;;;8.40;99.90;;;;;;5168632;28;20018;-82
2023/12/17 12:01:34;;;;;;;21.70;19.67;;;8.50;99.90;;;;;;5168438;28;20101;-84
2023/12/17 12:04:05;;;;;;;20.15;18.65;;;8.70;99.90;;;;;;5167812;28;20052;-81
2023/12/17 12:06:36;;;;;;;20.08;18.67;;;8.50;99.90;;;;;;5168510;28;20068;-81
2023/12/17 12:09:18;;;;;;;23.42;20.92;;;8.50;99.90;;;;;;5168334;28;20419;-81
2023/12/17 12:11:49;;;;;;;21.70;20.00;;;8.40;99.90;;;;;;5162797;28;20046;-81
2023/12/17 12:14:27;;;;;;;21.40;19.80;;;8.30;99.90;;;;;;5168518;28;20010;-82
2023/12/17 12:16:59;;;;;;;18.85;17.52;;;8.20;99.90;;;;;;5168054;28;20545;-83
2023/12/17 12:19:30;;;;;;;20.55;18.83;;;8.30;99.90;;;;;;5168530;28;20126;-80
2023/12/17 12:22:01;;;;;;;20.08;18.33;;;8.40;99.90;;;;;;5168308;28;20030;-82
2023/12/17 12:24:31;;;;;;;20.25;18.50;;;8.40;99.90;;;;;;5168454;28;20049;-81
2023/12/17 12:27:06;;;;;;;17.58;16.23;;;8.60;99.90;;;;;;5167841;28;20069;-81
2023/12/17 12:29:37;;;;;;;17.05;15.77;;;8.40;99.90;;;;;;5168239;28;20124;-82
2023/12/17 12:32:09;;;;;;;15.90;14.57;;;8.50;99.90;;;;;;5167954;28;20739;-81
2023/12/17 12:34:45;;;;;;;18.67;17.02;;;8.50;99.90;;;;;;5168209;28;20015;-81
2023/12/17 12:37:38;;;;;;;17.83;16.50;;;8.60;99.90;;;;;;5168195;28;20033;-81
2023/12/17 12:40:09;;;;;;;18.60;17.05;;;8.60;99.90;;;;;;5167771;28;20077;-82
2023/12/17 12:42:40;;;;;;;14.85;13.48;;;9.50;99.90;;;;;;5168031;28;20026;-80
2023/12/17 12:45:11;;;;;;;16.95;15.45;;;10.00;99.90;;;;;;5167934;28;20029;-82
2023/12/17 12:47:42;;;;;;;18.17;16.50;;;10.10;99.90;;;;;;5167871;28;20549;-80
2023/12/17 12:50:13;;;;;;;15.13;14.00;;;10.30;99.90;;;;;;5166484;28;20121;-82
2023/12/17 12:52:44;;;;;;;14.20;13.00;;;10.60;99.90;;;;;;5167786;28;20027;-81
2023/12/17 12:55:15;;;;;;;14.60;13.23;;;10.80;99.90;;;;;;5167779;28;20022;-84
2023/12/17 12:57:46;;;;;;;12.20;11.20;;;11.00;99.90;;;;;;5167947;28;20030;-83
2023/12/17 13:00:18;;;;;;;14.63;13.23;;;9.90;99.90;;;;;;5167649;28;20084;-81
2023/12/17 13:02:49;;;;;;;16.23;14.50;;;9.60;99.90;;;;;;5167091;28;20039;-82
2023/12/17 13:05:22;;;;;;;14.77;13.65;;;9.20;99.90;;;;;;5167498;28;20034;-81
2023/12/17 13:07:53;;;;;;;14.98;13.60;;;9.10;99.90;;;;;;5167322;28;20114;-82